sensor_id;sensor_type;location;lat;lon;timestamp;temperature;humidity
480;DHT22;226;48.606;9.096;2022-07-30T00:02:09;16.90;89.20
480;DHT22;226;48.606;9.096;2022-07-30T00:04:39;17.30;88.40
480;DHT22;226;48.606;9.096;2022-07-30T00:07:07;16.70;78.80
480;DHT22;226;48.606;9.096;2022-07-30T00:09:35;16.70;81.40
480;DHT22;226;48.606;9.096;2022-07-30T00:12:04;16.60;84.10
480;DHT22;226;48.606;9.096;2022-07-30T00:14:32;16.60;86.30
480;DHT22;226;48.606;9.096;2022-07-30T00:17:01;16.40;87.30
480;DHT22;226;48.606;9.096;2022-07-30T00:19:31;17.80;86.60
480;DHT22;226;48.606;9.096;2022-07-30T00:22:01;16.60;85.00
480;DHT22;226;48.606;9.096;2022-07-30T00:24:29;16.30;84.20
480;DHT22;226;48.606;9.096;2022-07-30T00:26:57;16.60;86.00
480;DHT22;226;48.606;9.096;2022-07-30T00:29:25;16.20;85.50
480;DHT22;226;48.606;9.096;2022-07-30T00:31:53;16.80;86.50
480;DHT22;226;48.606;9.096;2022-07-30T00:34:21;16.60;87.20
480;DHT22;226;48.606;9.096;2022-07-30T00:36:49;16.60;84.00
480;DHT22;226;48.606;9.096;2022-07-30T00:39:19;16.20;83.90
480;DHT22;226;48.606;9.096;2022-07-30T00:41:55;16.60;82.30
480;DHT22;226;48.606;9.096;2022-07-30T00:44:23;16.70;78.50
480;DHT22;226;48.606;9.096;2022-07-30T00:46:52;16.10;79.60
480;DHT22;226;48.606;9.096;2022-07-30T00:49:20;16.70;82.30
480;DHT22;226;48.606;9.096;2022-07-30T00:51:49;16.80;78.50
480;DHT22;226;48.606;9.096;2022-07-30T00:54:19;16.70;78.90
480;DHT22;226;48.606;9.096;2022-07-30T00:56:48;16.80;83.60
480;DHT22;226;48.606;9.096;2022-07-30T00:59:16;16.60;83.20
480;DHT22;226;48.606;9.096;2022-07-30T01:01:44;16.70;81.20
480;DHT22;226;48.606;9.096;2022-07-30T01:04:12;16.60;80.00
480;DHT22;226;48.606;9.096;2022-07-30T01:06:40;16.50;81.40
480;DHT22;226;48.606;9.096;2022-07-30T01:09:08;16.60;83.40
480;DHT22;226;48.606;9.096;2022-07-30T01:11:40;16.50;86.10
480;DHT22;226;48.606;9.096;2022-07-30T01:14:09;16.60;85.50
480;DHT22;226;48.606;9.096;2022-07-30T01:16:38;16.70;84.80
480;DHT22;226;48.606;9.096;2022-07-30T01:19:12;16.40;85.20
480;DHT22;226;48.606;9.096;2022-07-30T01:22:05;16.30;85.10
480;DHT22;226;48.606;9.096;2022-07-30T01:24:39;16.30;87.30
480;DHT22;226;48.606;9.096;2022-07-30T01:27:10;16.30;86.40
480;DHT22;226;48.606;9.096;2022-07-30T01:29:45;16.50;87.90
480;DHT22;226;48.606;9.096;2022-07-30T01:32:15;16.10;90.60
480;DHT22;226;48.606;9.096;2022-07-30T01:34:46;16.00;91.20
480;DHT22;226;48.606;9.096;2022-07-30T01:37:14;16.00;91.70
480;DHT22;226;48.606;9.096;2022-07-30T01:39:46;16.10;91.30
480;DHT22;226;48.606;9.096;2022-07-30T01:42:18;16.00;90.90
480;DHT22;226;48.606;9.096;2022-07-30T01:44:47;16.30;92.00
480;DHT22;226;48.606;9.096;2022-07-30T01:47:16;16.10;90.80
480;DHT22;226;48.606;9.096;2022-07-30T01:49:46;16.70;91.60
480;DHT22;226;48.606;9.096;2022-07-30T01:52:17;16.10;92.30
480;DHT22;226;48.606;9.096;2022-07-30T01:54:49;16.10;92.40
480;DHT22;226;48.606;9.096;2022-07-30T01:57:19;16.00;91.50
480;DHT22;226;48.606;9.096;2022-07-30T01:59:50;16.00;89.40
480;DHT22;226;48.606;9.096;2022-07-30T02:02:18;16.20;90.50
480;DHT22;226;48.606;9.096;2022-07-30T02:04:47;15.80;91.70
480;DHT22;226;48.606;9.096;2022-07-30T02:07:18;15.50;92.40
480;DHT22;226;48.606;9.096;2022-07-30T02:09:52;15.50;93.50
480;DHT22;226;48.606;9.096;2022-07-30T02:12:24;15.60;93.10
480;DHT22;226;48.606;9.096;2022-07-30T02:15:01;15.40;92.90
480;DHT22;226;48.606;9.096;2022-07-30T02:17:40;15.30;93.70
480;DHT22;226;48.606;9.096;2022-07-30T02:20:12;15.20;94.30
480;DHT22;226;48.606;9.096;2022-07-30T02:22:43;15.10;95.30
480;DHT22;226;48.606;9.096;2022-07-30T02:25:16;15.00;95.30
480;DHT22;226;48.606;9.096;2022-07-30T02:27:49;15.10;95.60
480;DHT22;226;48.606;9.096;2022-07-30T02:30:19;15.20;95.50
480;DHT22;226;48.606;9.096;2022-07-30T02:32:50;15.10;94.10
480;DHT22;226;48.606;9.096;2022-07-30T02:35:20;15.00;93.50
480;DHT22;226;48.606;9.096;2022-07-30T02:37:50;14.90;94.00
480;DHT22;226;48.606;9.096;2022-07-30T02:40:21;14.80;94.80
480;DHT22;226;48.606;9.096;2022-07-30T02:42:52;14.80;95.80
480;DHT22;226;48.606;9.096;2022-07-30T02:45:23;14.70;96.20
480;DHT22;226;48.606;9.096;2022-07-30T02:47:55;14.70;95.40
480;DHT22;226;48.606;9.096;2022-07-30T02:50:24;14.90;95.80
480;DHT22;226;48.606;9.096;2022-07-30T02:52:55;14.90;95.40
480;DHT22;226;48.606;9.096;2022-07-30T02:55:26;15.10;95.20
480;DHT22;226;48.606;9.096;2022-07-30T02:57:56;14.90;95.60
480;DHT22;226;48.606;9.096;2022-07-30T03:00:26;14.90;95.30
480;DHT22;226;48.606;9.096;2022-07-30T03:02:55;14.90;95.30
480;DHT22;226;48.606;9.096;2022-07-30T03:05:27;15.00;95.40
480;DHT22;226;48.606;9.096;2022-07-30T03:07:57;15.00;94.60
480;DHT22;226;48.606;9.096;2022-07-30T03:10:26;14.90;95.20
480;DHT22;226;48.606;9.096;2022-07-30T03:12:57;15.70;93.80
480;DHT22;226;48.606;9.096;2022-07-30T03:15:27;14.70;93.40
480;DHT22;226;48.606;9.096;2022-07-30T03:17:57;14.30;94.10
480;DHT22;226;48.606;9.096;2022-07-30T03:20:28;14.60;93.90
480;DHT22;226;48.606;9.096;2022-07-30T03:22:58;14.50;93.60
480;DHT22;226;48.606;9.096;2022-07-30T03:25:29;14.50;95.10
480;DHT22;226;48.606;9.096;2022-07-30T03:28:00;14.60;94.90
480;DHT22;226;48.606;9.096;2022-07-30T03:30:29;14.70;96.00
480;DHT22;226;48.606;9.096;2022-07-30T03:32:58;14.30;96.00
480;DHT22;226;48.606;9.096;2022-07-30T03:35:26;14.10;96.00
480;DHT22;226;48.606;9.096;2022-07-30T03:37:58;14.30;96.80
480;DHT22;226;48.606;9.096;2022-07-30T03:40:27;14.50;97.20
480;DHT22;226;48.606;9.096;2022-07-30T03:42:55;14.30;96.60
480;DHT22;226;48.606;9.096;2022-07-30T03:45:25;14.50;95.60
480;DHT22;226;48.606;9.096;2022-07-30T03:47:54;14.20;95.90
480;DHT22;226;48.606;9.096;2022-07-30T03:50:23;14.40;96.00
480;DHT22;226;48.606;9.096;2022-07-30T03:52:51;13.70;95.20
480;DHT22;226;48.606;9.096;2022-07-30T03:55:21;14.30;96.30
480;DHT22;226;48.606;9.096;2022-07-30T03:57:49;14.30;96.30
480;DHT22;226;48.606;9.096;2022-07-30T04:00:18;14.40;95.90
480;DHT22;226;48.606;9.096;2022-07-30T04:02:47;14.40;95.40
480;DHT22;226;48.606;9.096;2022-07-30T04:05:16;15.40;95.40
480;DHT22;226;48.606;9.096;2022-07-30T04:07:44;14.70;95.70
480;DHT22;226;48.606;9.096;2022-07-30T04:10:13;14.40;95.80
480;DHT22;226;48.606;9.096;2022-07-30T04:12:41;14.30;95.20
480;DHT22;226;48.606;9.096;2022-07-30T04:15:10;14.50;93.70
480;DHT22;226;48.606;9.096;2022-07-30T04:18:02;14.30;93.20
480;DHT22;226;48.606;9.096;2022-07-30T04:20:35;14.50;94.30
480;DHT22;226;48.606;9.096;2022-07-30T04:23:07;14.40;94.20
480;DHT22;226;48.606;9.096;2022-07-30T04:25:36;14.50;94.60
480;DHT22;226;48.606;9.096;2022-07-30T04:28:05;14.50;94.70
480;DHT22;226;48.606;9.096;2022-07-30T04:30:33;14.50;94.80
480;DHT22;226;48.606;9.096;2022-07-30T04:33:03;14.60;95.10
480;DHT22;226;48.606;9.096;2022-07-30T04:35:32;14.60;94.20
480;DHT22;226;48.606;9.096;2022-07-30T04:38:18;14.70;94.00
480;DHT22;226;48.606;9.096;2022-07-30T04:40:46;14.70;93.30
480;DHT22;226;48.606;9.096;2022-07-30T04:43:14;14.70;93.10
480;DHT22;226;48.606;9.096;2022-07-30T04:45:42;14.90;93.90
480;DHT22;226;48.606;9.096;2022-07-30T04:48:12;14.80;93.70
480;DHT22;226;48.606;9.096;2022-07-30T04:50:41;15.40;94.30
480;DHT22;226;48.606;9.096;2022-07-30T04:53:10;14.90;93.80
480;DHT22;226;48.606;9.096;2022-07-30T04:55:41;15.00;94.20
480;DHT22;226;48.606;9.096;2022-07-30T04:58:09;15.00;93.70
480;DHT22;226;48.606;9.096;2022-07-30T05:00:41;15.10;93.60
480;DHT22;226;48.606;9.096;2022-07-30T05:03:13;15.20;93.80
480;DHT22;226;48.606;9.096;2022-07-30T05:05:42;15.10;93.20
480;DHT22;226;48.606;9.096;2022-07-30T05:08:11;15.20;93.70
480;DHT22;226;48.606;9.096;2022-07-30T05:10:40;15.20;93.30
480;DHT22;226;48.606;9.096;2022-07-30T05:13:10;15.30;93.30
480;DHT22;226;48.606;9.096;2022-07-30T05:15:40;15.30;93.20
480;DHT22;226;48.606;9.096;2022-07-30T05:18:10;15.40;93.20
480;DHT22;226;48.606;9.096;2022-07-30T05:20:40;15.70;92.20
480;DHT22;226;48.606;9.096;2022-07-30T05:23:08;15.70;92.00
480;DHT22;226;48.606;9.096;2022-07-30T05:25:36;15.60;91.50
480;DHT22;226;48.606;9.096;2022-07-30T05:28:04;15.60;91.40
480;DHT22;226;48.606;9.096;2022-07-30T05:30:32;15.80;91.50
480;DHT22;226;48.606;9.096;2022-07-30T05:33:00;15.70;91.70
480;DHT22;226;48.606;9.096;2022-07-30T05:35:30;15.70;91.50
480;DHT22;226;48.606;9.096;2022-07-30T05:37:59;15.90;91.70
480;DHT22;226;48.606;9.096;2022-07-30T05:40:27;15.90;90.80
480;DHT22;226;48.606;9.096;2022-07-30T05:42:55;16.10;91.60
480;DHT22;226;48.606;9.096;2022-07-30T05:45:23;16.40;91.80
480;DHT22;226;48.606;9.096;2022-07-30T05:47:51;16.00;90.00
480;DHT22;226;48.606;9.096;2022-07-30T05:50:19;16.20;89.80
480;DHT22;226;48.606;9.096;2022-07-30T05:52:47;16.30;88.90
480;DHT22;226;48.606;9.096;2022-07-30T05:55:17;16.30;88.10
480;DHT22;226;48.606;9.096;2022-07-30T05:57:45;16.40;87.50
480;DHT22;226;48.606;9.096;2022-07-30T06:00:13;16.40;87.10
480;DHT22;226;48.606;9.096;2022-07-30T06:02:41;16.50;85.10
480;DHT22;226;48.606;9.096;2022-07-30T06:05:09;16.80;85.20
480;DHT22;226;48.606;9.096;2022-07-30T06:07:37;16.70;85.60
480;DHT22;226;48.606;9.096;2022-07-30T06:10:06;16.80;82.60
480;DHT22;226;48.606;9.096;2022-07-30T06:12:36;17.00;81.40
480;DHT22;226;48.606;9.096;2022-07-30T06:15:05;16.80;81.30
480;DHT22;226;48.606;9.096;2022-07-30T06:17:33;17.30;81.50
480;DHT22;226;48.606;9.096;2022-07-30T06:20:08;17.50;74.80
480;DHT22;226;48.606;9.096;2022-07-30T06:22:36;17.70;68.20
480;DHT22;226;48.606;9.096;2022-07-30T06:25:05;17.90;69.10
480;DHT22;226;48.606;9.096;2022-07-30T06:27:33;17.90;68.60
480;DHT22;226;48.606;9.096;2022-07-30T06:30:09;18.10;66.50
480;DHT22;226;48.606;9.096;2022-07-30T06:32:37;18.30;65.40
480;DHT22;226;48.606;9.096;2022-07-30T06:35:06;18.40;66.10
480;DHT22;226;48.606;9.096;2022-07-30T06:37:34;18.30;63.30
480;DHT22;226;48.606;9.096;2022-07-30T06:40:22;18.60;63.00
480;DHT22;226;48.606;9.096;2022-07-30T06:42:50;18.60;61.40
480;DHT22;226;48.606;9.096;2022-07-30T06:45:20;18.70;55.60
480;DHT22;226;48.606;9.096;2022-07-30T06:47:48;18.80;53.10
480;DHT22;226;48.606;9.096;2022-07-30T06:50:17;19.10;48.30
480;DHT22;226;48.606;9.096;2022-07-30T06:52:45;19.30;48.50
480;DHT22;226;48.606;9.096;2022-07-30T06:55:13;19.30;47.90
480;DHT22;226;48.606;9.096;2022-07-30T06:57:41;19.40;48.90
480;DHT22;226;48.606;9.096;2022-07-30T07:00:10;19.50;50.50
480;DHT22;226;48.606;9.096;2022-07-30T07:02:40;19.50;48.00
480;DHT22;226;48.606;9.096;2022-07-30T07:05:08;19.60;45.00
480;DHT22;226;48.606;9.096;2022-07-30T07:07:37;19.80;44.20
480;DHT22;226;48.606;9.096;2022-07-30T07:10:18;19.80;42.50
480;DHT22;226;48.606;9.096;2022-07-30T07:12:46;19.80;43.10
480;DHT22;226;48.606;9.096;2022-07-30T07:15:14;19.80;42.40
480;DHT22;226;48.606;9.096;2022-07-30T07:17:43;19.90;43.50
480;DHT22;226;48.606;9.096;2022-07-30T07:20:12;20.00;39.90
480;DHT22;226;48.606;9.096;2022-07-30T07:22:40;20.20;43.50
480;DHT22;226;48.606;9.096;2022-07-30T07:25:08;20.30;41.90
480;DHT22;226;48.606;9.096;2022-07-30T07:27:37;20.10;41.10
480;DHT22;226;48.606;9.096;2022-07-30T07:30:06;20.30;38.70
480;DHT22;226;48.606;9.096;2022-07-30T07:32:35;20.30;38.60
480;DHT22;226;48.606;9.096;2022-07-30T07:35:05;20.40;37.50
480;DHT22;226;48.606;9.096;2022-07-30T07:37:33;20.60;38.40
480;DHT22;226;48.606;9.096;2022-07-30T07:40:01;20.70;40.70
480;DHT22;226;48.606;9.096;2022-07-30T07:42:30;20.50;37.50
480;DHT22;226;48.606;9.096;2022-07-30T07:44:58;20.60;37.00
480;DHT22;226;48.606;9.096;2022-07-30T07:47:26;20.70;37.10
480;DHT22;226;48.606;9.096;2022-07-30T07:49:54;20.70;35.00
480;DHT22;226;48.606;9.096;2022-07-30T07:52:24;20.60;33.00
480;DHT22;226;48.606;9.096;2022-07-30T07:54:52;20.90;34.30
480;DHT22;226;48.606;9.096;2022-07-30T07:57:20;20.80;34.90
480;DHT22;226;48.606;9.096;2022-07-30T07:59:49;20.90;34.00
480;DHT22;226;48.606;9.096;2022-07-30T08:02:20;20.90;36.50
480;DHT22;226;48.606;9.096;2022-07-30T08:04:48;20.20;30.40
480;DHT22;226;48.606;9.096;2022-07-30T08:07:16;21.30;32.00
480;DHT22;226;48.606;9.096;2022-07-30T08:09:45;21.50;31.10
480;DHT22;226;48.606;9.096;2022-07-30T08:12:13;21.00;30.30
480;DHT22;226;48.606;9.096;2022-07-30T08:14:41;21.20;29.80
480;DHT22;226;48.606;9.096;2022-07-30T08:17:09;21.30;30.60
480;DHT22;226;48.606;9.096;2022-07-30T08:19:38;21.30;29.00
480;DHT22;226;48.606;9.096;2022-07-30T08:22:06;21.40;29.40
480;DHT22;226;48.606;9.096;2022-07-30T08:24:34;21.40;25.30
480;DHT22;226;48.606;9.096;2022-07-30T08:27:03;21.50;26.20
480;DHT22;226;48.606;9.096;2022-07-30T08:29:32;21.60;28.70
480;DHT22;226;48.606;9.096;2022-07-30T08:32:00;21.80;29.10
480;DHT22;226;48.606;9.096;2022-07-30T08:34:29;21.90;25.60
480;DHT22;226;48.606;9.096;2022-07-30T08:36:57;22.00;28.30
480;DHT22;226;48.606;9.096;2022-07-30T08:39:26;22.10;26.60
480;DHT22;226;48.606;9.096;2022-07-30T08:41:54;22.20;26.20
480;DHT22;226;48.606;9.096;2022-07-30T08:44:25;22.40;24.20
480;DHT22;226;48.606;9.096;2022-07-30T08:46:55;22.40;24.80
480;DHT22;226;48.606;9.096;2022-07-30T08:49:25;22.60;23.40
480;DHT22;226;48.606;9.096;2022-07-30T08:51:55;22.70;23.30
480;DHT22;226;48.606;9.096;2022-07-30T08:54:23;22.70;25.70
480;DHT22;226;48.606;9.096;2022-07-30T08:56:52;22.90;24.70
480;DHT22;226;48.606;9.096;2022-07-30T08:59:24;22.90;23.00
480;DHT22;226;48.606;9.096;2022-07-30T09:02:13;22.70;20.80
480;DHT22;226;48.606;9.096;2022-07-30T09:04:53;22.70;23.40
480;DHT22;226;48.606;9.096;2022-07-30T09:07:21;22.70;22.90
480;DHT22;226;48.606;9.096;2022-07-30T09:09:49;22.70;23.20
480;DHT22;226;48.606;9.096;2022-07-30T09:12:34;22.80;19.90
480;DHT22;226;48.606;9.096;2022-07-30T09:15:12;22.80;19.40
480;DHT22;226;48.606;9.096;2022-07-30T09:17:54;23.00;17.20
480;DHT22;226;48.606;9.096;2022-07-30T09:20:27;23.40;20.10
480;DHT22;226;48.606;9.096;2022-07-30T09:23:01;23.10;8.90
480;DHT22;226;48.606;9.096;2022-07-30T09:25:34;23.10;11.50
480;DHT22;226;48.606;9.096;2022-07-30T09:28:04;23.20;8.70
480;DHT22;226;48.606;9.096;2022-07-30T09:30:46;23.30;7.90
480;DHT22;226;48.606;9.096;2022-07-30T09:33:14;23.40;8.40
480;DHT22;226;48.606;9.096;2022-07-30T09:35:55;23.40;8.50
480;DHT22;226;48.606;9.096;2022-07-30T09:38:23;23.40;9.20
480;DHT22;226;48.606;9.096;2022-07-30T09:40:52;23.50;9.40
480;DHT22;226;48.606;9.096;2022-07-30T09:43:23;23.50;6.80
480;DHT22;226;48.606;9.096;2022-07-30T09:45:56;23.50;7.30
480;DHT22;226;48.606;9.096;2022-07-30T09:48:27;23.70;6.90
480;DHT22;226;48.606;9.096;2022-07-30T09:50:55;23.70;5.30
480;DHT22;226;48.606;9.096;2022-07-30T09:53:23;23.70;8.40
480;DHT22;226;48.606;9.096;2022-07-30T09:55:52;23.70;9.50
480;DHT22;226;48.606;9.096;2022-07-30T09:58:20;23.80;7.30
480;DHT22;226;48.606;9.096;2022-07-30T10:00:57;23.60;5.80
480;DHT22;226;48.606;9.096;2022-07-30T10:03:26;23.60;6.70
480;DHT22;226;48.606;9.096;2022-07-30T10:06:08;23.60;7.20
480;DHT22;226;48.606;9.096;2022-07-30T10:08:40;23.70;7.10
480;DHT22;226;48.606;9.096;2022-07-30T10:11:13;23.60;4.10
480;DHT22;226;48.606;9.096;2022-07-30T10:13:49;23.50;6.10
480;DHT22;226;48.606;9.096;2022-07-30T10:16:21;23.50;6.20
480;DHT22;226;48.606;9.096;2022-07-30T10:18:50;23.40;7.50
480;DHT22;226;48.606;9.096;2022-07-30T10:21:19;23.40;8.80
480;DHT22;226;48.606;9.096;2022-07-30T10:23:51;23.50;9.00
480;DHT22;226;48.606;9.096;2022-07-30T10:26:21;23.60;6.20
480;DHT22;226;48.606;9.096;2022-07-30T10:28:50;23.70;5.30
480;DHT22;226;48.606;9.096;2022-07-30T10:31:20;23.80;7.60
480;DHT22;226;48.606;9.096;2022-07-30T10:34:08;23.80;6.90
480;DHT22;226;48.606;9.096;2022-07-30T10:36:39;23.80;6.70
480;DHT22;226;48.606;9.096;2022-07-30T10:39:13;23.80;7.00
480;DHT22;226;48.606;9.096;2022-07-30T10:41:50;23.90;6.60
480;DHT22;226;48.606;9.096;2022-07-30T10:47:17;23.90;4.30
480;DHT22;226;48.606;9.096;2022-07-30T10:50:06;24.00;4.30
480;DHT22;226;48.606;9.096;2022-07-30T10:52:49;24.00;3.00
480;DHT22;226;48.606;9.096;2022-07-30T10:55:20;24.10;4.50
480;DHT22;226;48.606;9.096;2022-07-30T10:58:07;24.30;4.70
480;DHT22;226;48.606;9.096;2022-07-30T11:00:58;24.50;4.60
480;DHT22;226;48.606;9.096;2022-07-30T11:03:29;24.60;4.20
480;DHT22;226;48.606;9.096;2022-07-30T11:06:26;24.70;1.70
480;DHT22;226;48.606;9.096;2022-07-30T11:08:54;24.80;2.30
480;DHT22;226;48.606;9.096;2022-07-30T11:11:46;24.90;4.60
480;DHT22;226;48.606;9.096;2022-07-30T11:14:54;25.00;4.80
480;DHT22;226;48.606;9.096;2022-07-30T11:17:56;25.00;3.40
480;DHT22;226;48.606;9.096;2022-07-30T11:20:26;25.10;1.40
480;DHT22;226;48.606;9.096;2022-07-30T11:23:08;24.90;2.10
480;DHT22;226;48.606;9.096;2022-07-30T11:25:40;24.90;2.30
480;DHT22;226;48.606;9.096;2022-07-30T11:28:39;25.00;3.40
480;DHT22;226;48.606;9.096;2022-07-30T11:31:28;25.00;3.80
480;DHT22;226;48.606;9.096;2022-07-30T11:34:27;25.10;2.80
480;DHT22;226;48.606;9.096;2022-07-30T11:37:10;25.20;4.00
480;DHT22;226;48.606;9.096;2022-07-30T11:40:10;25.50;3.10
480;DHT22;226;48.606;9.096;2022-07-30T11:42:40;25.50;1.00
480;DHT22;226;48.606;9.096;2022-07-30T11:45:23;25.40;1.00
480;DHT22;226;48.606;9.096;2022-07-30T11:47:57;25.40;1.00
480;DHT22;226;48.606;9.096;2022-07-30T11:50:31;25.20;1.20
480;DHT22;226;48.606;9.096;2022-07-30T11:53:02;25.20;1.00
480;DHT22;226;48.606;9.096;2022-07-30T11:55:33;25.10;2.60
480;DHT22;226;48.606;9.096;2022-07-30T11:58:08;25.10;1.20
480;DHT22;226;48.606;9.096;2022-07-30T12:00:37;25.30;1.00
480;DHT22;226;48.606;9.096;2022-07-30T12:03:07;25.40;2.90
480;DHT22;226;48.606;9.096;2022-07-30T12:05:37;25.50;2.40
480;DHT22;226;48.606;9.096;2022-07-30T12:08:07;25.80;1.00
480;DHT22;226;48.606;9.096;2022-07-30T12:10:57;25.80;1.00
480;DHT22;226;48.606;9.096;2022-07-30T12:13:26;25.90;1.00
480;DHT22;226;48.606;9.096;2022-07-30T12:16:12;25.90;1.00
480;DHT22;226;48.606;9.096;2022-07-30T12:18:40;26.20;1.00
480;DHT22;226;48.606;9.096;2022-07-30T12:21:09;26.30;1.00
480;DHT22;226;48.606;9.096;2022-07-30T12:23:41;26.00;1.00
480;DHT22;226;48.606;9.096;2022-07-30T12:26:19;25.80;1.00
480;DHT22;226;48.606;9.096;2022-07-30T12:28:48;25.70;1.00
480;DHT22;226;48.606;9.096;2022-07-30T12:31:16;25.90;1.00
480;DHT22;226;48.606;9.096;2022-07-30T12:33:45;26.10;1.00
480;DHT22;226;48.606;9.096;2022-07-30T12:36:24;26.30;1.00
480;DHT22;226;48.606;9.096;2022-07-30T12:38:54;26.60;1.00
480;DHT22;226;48.606;9.096;2022-07-30T12:41:39;26.90;1.00
480;DHT22;226;48.606;9.096;2022-07-30T12:44:08;27.20;1.00
480;DHT22;226;48.606;9.096;2022-07-30T12:46:38;27.30;1.00
480;DHT22;226;48.606;9.096;2022-07-30T12:49:07;27.30;1.00
480;DHT22;226;48.606;9.096;2022-07-30T12:51:51;27.10;1.00
480;DHT22;226;48.606;9.096;2022-07-30T12:54:27;26.80;1.00
480;DHT22;226;48.606;9.096;2022-07-30T12:56:58;26.80;1.00
480;DHT22;226;48.606;9.096;2022-07-30T12:59:28;26.70;1.00
480;DHT22;226;48.606;9.096;2022-07-30T13:01:57;26.70;1.00
480;DHT22;226;48.606;9.096;2022-07-30T13:04:27;26.60;1.00
480;DHT22;226;48.606;9.096;2022-07-30T13:07:08;26.70;1.00
480;DHT22;226;48.606;9.096;2022-07-30T13:09:38;26.80;1.00
480;DHT22;226;48.606;9.096;2022-07-30T13:12:11;27.00;1.00
480;DHT22;226;48.606;9.096;2022-07-30T13:14:39;27.20;1.00
480;DHT22;226;48.606;9.096;2022-07-30T13:17:07;27.20;1.00
480;DHT22;226;48.606;9.096;2022-07-30T13:19:36;27.10;1.00
480;DHT22;226;48.606;9.096;2022-07-30T13:22:04;27.10;1.00
480;DHT22;226;48.606;9.096;2022-07-30T13:24:32;27.20;1.00
480;DHT22;226;48.606;9.096;2022-07-30T13:27:02;27.50;1.00
480;DHT22;226;48.606;9.096;2022-07-30T13:29:30;27.70;1.00
480;DHT22;226;48.606;9.096;2022-07-30T13:31:58;28.00;1.00
480;DHT22;226;48.606;9.096;2022-07-30T13:34:26;28.20;1.00
480;DHT22;226;48.606;9.096;2022-07-30T13:36:54;28.40;1.00
480;DHT22;226;48.606;9.096;2022-07-30T13:39:22;28.40;1.00
480;DHT22;226;48.606;9.096;2022-07-30T13:41:50;28.50;1.00
480;DHT22;226;48.606;9.096;2022-07-30T13:44:20;28.70;1.00
480;DHT22;226;48.606;9.096;2022-07-30T13:46:48;29.40;2.40
480;DHT22;226;48.606;9.096;2022-07-30T13:49:16;29.80;2.50
480;DHT22;226;48.606;9.096;2022-07-30T13:51:44;30.50;15.90
480;DHT22;226;48.606;9.096;2022-07-30T13:54:14;31.00;11.20
480;DHT22;226;48.606;9.096;2022-07-30T13:56:42;31.20;9.50
480;DHT22;226;48.606;9.096;2022-07-30T13:59:10;30.20;9.50
480;DHT22;226;48.606;9.096;2022-07-30T14:01:39;29.50;9.00
480;DHT22;226;48.606;9.096;2022-07-30T14:04:08;29.50;10.40
480;DHT22;226;48.606;9.096;2022-07-30T14:06:36;29.80;9.90
480;DHT22;226;48.606;9.096;2022-07-30T14:09:04;30.00;10.60
480;DHT22;226;48.606;9.096;2022-07-30T14:11:32;30.70;15.60
480;DHT22;226;48.606;9.096;2022-07-30T14:14:00;31.50;1.00
480;DHT22;226;48.606;9.096;2022-07-30T14:16:28;32.10;1.00
480;DHT22;226;48.606;9.096;2022-07-30T14:19:13;32.10;1.00
480;DHT22;226;48.606;9.096;2022-07-30T14:21:50;32.60;1.00
480;DHT22;226;48.606;9.096;2022-07-30T14:24:19;33.00;1.00
480;DHT22;226;48.606;9.096;2022-07-30T14:26:48;33.10;1.00
480;DHT22;226;48.606;9.096;2022-07-30T14:29:23;32.80;1.00
480;DHT22;226;48.606;9.096;2022-07-30T14:31:51;32.90;1.00
480;DHT22;226;48.606;9.096;2022-07-30T14:34:21;32.00;1.00
480;DHT22;226;48.606;9.096;2022-07-30T14:36:49;31.30;1.00
480;DHT22;226;48.606;9.096;2022-07-30T14:39:17;30.30;17.20
480;DHT22;226;48.606;9.096;2022-07-30T14:41:46;29.80;15.20
480;DHT22;226;48.606;9.096;2022-07-30T14:44:21;29.10;16.70
480;DHT22;226;48.606;9.096;2022-07-30T14:46:49;28.80;19.20
480;DHT22;226;48.606;9.096;2022-07-30T14:49:20;28.60;17.10
480;DHT22;226;48.606;9.096;2022-07-30T14:51:50;28.50;17.80
480;DHT22;226;48.606;9.096;2022-07-30T14:54:18;28.50;17.70
480;DHT22;226;48.606;9.096;2022-07-30T14:56:46;29.40;2.40
480;DHT22;226;48.606;9.096;2022-07-30T14:59:14;29.80;1.00
480;DHT22;226;48.606;9.096;2022-07-30T15:01:42;29.80;1.00
480;DHT22;226;48.606;9.096;2022-07-30T15:04:12;29.60;1.00
480;DHT22;226;48.606;9.096;2022-07-30T15:06:42;29.50;1.00
480;DHT22;226;48.606;9.096;2022-07-30T15:09:10;29.00;1.50
480;DHT22;226;48.606;9.096;2022-07-30T15:11:38;30.10;1.00
480;DHT22;226;48.606;9.096;2022-07-30T15:14:27;29.40;1.00
480;DHT22;226;48.606;9.096;2022-07-30T15:16:56;29.20;1.00
480;DHT22;226;48.606;9.096;2022-07-30T15:19:30;29.20;1.00
480;DHT22;226;48.606;9.096;2022-07-30T15:22:02;29.00;1.00
480;DHT22;226;48.606;9.096;2022-07-30T15:24:31;28.70;3.60
480;DHT22;226;48.606;9.096;2022-07-30T15:26:59;28.40;1.00
480;DHT22;226;48.606;9.096;2022-07-30T15:29:28;28.20;1.00
480;DHT22;226;48.606;9.096;2022-07-30T15:31:57;28.10;1.00
480;DHT22;226;48.606;9.096;2022-07-30T15:34:27;28.40;1.00
480;DHT22;226;48.606;9.096;2022-07-30T15:37:00;28.80;1.00
480;DHT22;226;48.606;9.096;2022-07-30T15:39:29;29.20;1.00
480;DHT22;226;48.606;9.096;2022-07-30T15:41:59;28.90;1.00
480;DHT22;226;48.606;9.096;2022-07-30T15:44:33;29.10;1.00
480;DHT22;226;48.606;9.096;2022-07-30T15:47:14;29.30;1.00
480;DHT22;226;48.606;9.096;2022-07-30T15:49:42;30.30;5.70
480;DHT22;226;48.606;9.096;2022-07-30T15:52:11;31.40;1.00
480;DHT22;226;48.606;9.096;2022-07-30T15:54:40;32.60;1.00
480;DHT22;226;48.606;9.096;2022-07-30T15:57:08;32.90;1.00
480;DHT22;226;48.606;9.096;2022-07-30T15:59:37;33.60;1.00
480;DHT22;226;48.606;9.096;2022-07-30T16:02:05;33.90;1.00
480;DHT22;226;48.606;9.096;2022-07-30T16:04:33;34.60;1.00
480;DHT22;226;48.606;9.096;2022-07-30T16:07:02;35.10;1.00
480;DHT22;226;48.606;9.096;2022-07-30T16:09:31;34.80;1.00
480;DHT22;226;48.606;9.096;2022-07-30T16:12:00;34.40;1.00
480;DHT22;226;48.606;9.096;2022-07-30T16:14:29;34.30;1.00
480;DHT22;226;48.606;9.096;2022-07-30T16:16:57;33.90;1.00
480;DHT22;226;48.606;9.096;2022-07-30T16:19:25;33.10;1.00
480;DHT22;226;48.606;9.096;2022-07-30T16:21:54;32.70;1.00
480;DHT22;226;48.606;9.096;2022-07-30T16:24:22;32.10;1.00
480;DHT22;226;48.606;9.096;2022-07-30T16:26:50;30.80;1.40
480;DHT22;226;48.606;9.096;2022-07-30T16:29:19;29.90;1.00
480;DHT22;226;48.606;9.096;2022-07-30T16:31:48;29.40;1.00
480;DHT22;226;48.606;9.096;2022-07-30T16:34:16;28.70;1.00
480;DHT22;226;48.606;9.096;2022-07-30T16:36:53;27.90;1.00
480;DHT22;226;48.606;9.096;2022-07-30T16:39:21;28.40;1.00
480;DHT22;226;48.606;9.096;2022-07-30T16:41:49;28.50;1.00
480;DHT22;226;48.606;9.096;2022-07-30T16:44:19;28.60;1.00
480;DHT22;226;48.606;9.096;2022-07-30T16:46:47;28.70;1.00
480;DHT22;226;48.606;9.096;2022-07-30T16:49:15;28.80;1.00
480;DHT22;226;48.606;9.096;2022-07-30T16:51:43;29.10;1.00
480;DHT22;226;48.606;9.096;2022-07-30T16:54:11;29.10;1.00
480;DHT22;226;48.606;9.096;2022-07-30T16:56:39;29.00;1.00
480;DHT22;226;48.606;9.096;2022-07-30T16:59:08;28.70;1.00
480;DHT22;226;48.606;9.096;2022-07-30T17:01:41;28.70;1.00
480;DHT22;226;48.606;9.096;2022-07-30T17:04:09;28.70;1.00
480;DHT22;226;48.606;9.096;2022-07-30T17:06:37;28.60;1.00
480;DHT22;226;48.606;9.096;2022-07-30T17:09:06;28.40;1.00
480;DHT22;226;48.606;9.096;2022-07-30T17:11:34;28.10;1.00